AirNav   Pilot Hours Calculator
 
 1565 users online  

ND14 Fordville Airport
Fordville, North Dakota, USA

GOING TO FORDVILLE?


FAA INFORMATION EFFECTIVE 30 DECEMBER 2021

Location

FAA Identifier: ND14
Lat/Long: 48-14-10.3280N 097-47-57.0525W
48-14.172133N 097-47.950875W
48.2362022,-97.7991813
(estimated)
Elevation: 1154 ft. / 351.7 m (surveyed)
Variation: 07E (1985)
From city: 2 miles NW of FORDVILLE, ND
Time zone: UTC -6 (UTC -5 during Daylight Saving Time)
Zip code: 58231

Airport Operations

Airport use: Private use. Permission required prior to landing
Activation date: 08/1947
Control tower: no
ARTCC: MINNEAPOLIS CENTER
FSS: GRAND FORKS FLIGHT SERVICE STATION
Attendance: UNATNDD
Wind indicator: yes
Segmented circle: no

Airport Communications

WX AWOS-3 at GAF (20 nm NE): 118.625 (701-352-0581)

Nearby radio navigation aids

VOR radial/distance  VOR name  Freq  Var
GFKr295/29.8GRAND FORKS VOR/DME114.3009E

Airport Services

Parking: hangars and tiedowns
Airframe service: NONE
Powerplant service: NONE
Bottled oxygen: NONE
Bulk oxygen: NONE

Runway Information

Runway 17/35

Dimensions: 2533 x 100 ft. / 772 x 30 m
Surface: turf, in fair condition
RUNWAY 17  RUNWAY 35
Latitude: 48-14.282833N48-13.866167N
Longitude: 097-47.822000W097-47.822000W
Elevation: 1154.0 ft.1154.0 ft.
Traffic pattern: leftleft
Markings: nonenone
Runway end identifier lights: nono
Obstructions: 4 ft. fence, 10 ft. from runway, 2:1 slope to clear3 ft. post, 10 ft. from runway, 3:1 slope to clear

Runway 8/26

Dimensions: 2234 x 100 ft. / 681 x 30 m
Surface: turf, in fair condition
& 17/35 TURF ROLLING TERRAIN WITH HOLES POSSIBLE.
RUNWAY 8  RUNWAY 26
Latitude: 48-14.282833N48-14.282833N
Longitude: 097-48.372000W097-47.822000W
Elevation: 1154.0 ft.1154.0 ft.
Traffic pattern: leftleft
Markings: nonenone
Runway end identifier lights: nono
Obstructions: 3 ft. post, 50 ft. from runway, 16:1 slope to clear20 ft. trees, 10 ft. from runway

Airport Ownership and Management from official FAA records

Ownership: Privately-owned
Owner: C, ROGER AAFEDT
132 2ND ST. S
SABIN, MN 56580
Phone 218-789-7394
Manager: C. ROGER AAFEDT
132 2ND ST. S
SABIN, MN 56580
Phone 218-789-7394

Airport Operational Statistics

Aircraft operations: 100/year *
100% transient general aviation
* for 12-month period ending 09 August 1989

Additional Remarks

ARPT CLSD WINTERS DUE TO LACK OF SNOW REMOVAL. (NOV-APR)
RY 35 LOW AREA HAS WATER IN SPRING THAW.
RY 17 & 26 NUMEROUS TREES & BLDGS IN THIS AREA.
FOR CD CTC MINNEAPOLIS ARTCC AT 651-463-5588.

Instrument Procedures

There are no published instrument procedures at ND14.

Some nearby airports with instrument procedures:

KGAF - Hutson Field Airport (20 nm NE)
KRDR - Grand Forks Air Force Base (23 nm SE)
5L0 - Lakota Municipal Airport (24 nm SW)
KGFK - Grand Forks International Airport (30 nm SE)
4V4 - Northwood Municipal Airport-Vince Field (32 nm S)
 
Loc | Ops | Rwys | IFR | FBO | Links
Com | Nav | Svcs | Stats | Notes

Bismarck Aero Center
AirBoss

 
Area around ND14 (Fordville Airport)
 
Road maps at: MapQuest Bing Google
 
Aerial photo
No photo
 
Sectional chart

 
Airport distance calculator
Flying to Fordville Airport? Find the distance to fly.

From to ND14

Sunrise and sunset
Times for 20-Jan-2022
 Local
(UTC-6)
 Zulu
(UTC)
Morning civil twilight07:3913:39
Sunrise08:1414:14
Sunset17:1123:11
Evening civil twilight17:4523:45

Current date and time
Zulu (UTC)  20-Jan-2022 23:59:47
Local (UTC-6)  20-Jan-2022 17:59:47
 
METAR
KGAF 
20nm NE 
202355Z AUTO 16018KT 10SM CLR M21/M25 A3037 RMK AO2
KRDR 
23nm SE 
202256Z AUTO 14011KT 10SM CLR M20/M24 A3041 RMK AO2 SLP336 T11971242 $
KGFK 
30nm SE 
202353Z 16013KT 10SM FEW250 M23/M26 A3040 RMK AO2 SLP328 4/009 T12281261 11206 21239 58034
K2C8 
34nm N 
202355Z AUTO 18015KT 10SM CLR M20/M24 A3032 RMK AO2
KD55 
39nm NW 
202355Z AUTO 18017KT 10SM M21/M23 A3021 RMK AO2
TAF
KRDR 
23nm SE 
201000Z 2010/2116 24006KT 9999 SKC QNH3055INS BECMG 2018/2019 17009KT 9999 FEW150 QNH3020INS BECMG 2103/2104 17012G18KT 9999 FEW200 510153 QNH2980INS BECMG 2112/2113 18015G25KT 4800 -SN BKN015 620159 520053 QNH2974INS TXM12/2109Z TNM28/2013Z
NOTAMs
Click for the latest NOTAMs
NOTAMs are issued by the DoD/FAA and will open in a separate window not controlled by AirNav.

 

 
 

Would you like to see your business listed on this page?

 If your business provides an interesting product or service to pilots, flight crews, aircraft, or users of the Fordville Airport, you should consider listing it here.  To start the listing process, click on the button below
 
Add a business
 

Other Pages about Fordville Airport

Update a link
 
Copyright © AirNav, LLC. All rights reserved. Privacy Policy  Contact